createdAt,value
2023-02-23T00:00:01.061Z,21.44
2023-02-23T00:01:05.359Z,21.43
2023-02-23T00:02:09.613Z,21.4
2023-02-23T00:03:13.883Z,21.38
2023-02-23T00:04:18.250Z,21.37
2023-02-23T00:05:22.522Z,21.37
2023-02-23T00:06:26.815Z,21.42
2023-02-23T00:07:31.341Z,21.39
2023-02-23T00:08:35.580Z,21.38
2023-02-23T00:09:39.806Z,21.36
2023-02-23T00:10:44.053Z,21.37
2023-02-23T00:11:48.328Z,21.34
2023-02-23T00:12:52.580Z,21.4
2023-02-23T00:13:56.851Z,21.46
2023-02-23T00:15:01.135Z,21.43
2023-02-23T00:16:05.502Z,21.41
2023-02-23T00:17:09.879Z,21.41
2023-02-23T00:18:14.203Z,21.37
2023-02-23T00:19:18.538Z,21.39
2023-02-23T00:20:23.036Z,21.42
2023-02-23T00:21:27.378Z,21.37
2023-02-23T00:22:31.660Z,21.38
2023-02-23T00:23:35.978Z,21.35
2023-02-23T00:24:40.283Z,21.36
2023-02-23T00:25:45.110Z,21.33
2023-02-23T00:26:49.409Z,21.31
2023-02-23T00:27:54.123Z,21.35
2023-02-23T00:28:58.416Z,21.36
2023-02-23T00:30:02.720Z,21.32
2023-02-23T00:31:07.012Z,21.3
2023-02-23T00:32:11.600Z,21.32
2023-02-23T00:33:16.291Z,21.29
2023-02-23T00:34:20.716Z,21.29
2023-02-23T00:35:25.019Z,21.28
2023-02-23T00:36:29.336Z,21.29
2023-02-23T00:37:33.614Z,21.34
2023-02-23T00:38:37.958Z,21.31
2023-02-23T00:39:42.359Z,21.34
2023-02-23T00:40:46.667Z,21.29
2023-02-23T00:41:50.994Z,21.28
2023-02-23T00:42:55.283Z,21.27
2023-02-23T00:43:59.612Z,21.26
2023-02-23T00:45:03.887Z,21.25
2023-02-23T00:46:08.256Z,21.23
2023-02-23T00:47:12.629Z,21.28
2023-02-23T00:48:16.926Z,21.25
2023-02-23T00:49:21.209Z,21.25
2023-02-23T00:50:25.486Z,21.34
2023-02-23T00:51:29.767Z,21.38
2023-02-23T00:52:34.101Z,21.38
2023-02-23T00:53:38.380Z,21.36
2023-02-23T00:54:42.737Z,21.32
2023-02-23T00:55:49.333Z,21.32
2023-02-23T00:56:53.627Z,21.31
2023-02-23T00:57:57.933Z,21.37
2023-02-23T00:59:02.460Z,21.31
2023-02-23T01:00:06.790Z,21.28
2023-02-23T01:01:11.129Z,21.32
2023-02-23T01:02:15.616Z,21.3
2023-02-23T01:03:20.000Z,21.26
2023-02-23T01:04:24.282Z,21.26
2023-02-23T01:05:28.619Z,21.31
2023-02-23T01:06:32.998Z,21.32
2023-02-23T01:07:37.288Z,21.31
2023-02-23T01:08:41.585Z,21.31
2023-02-23T01:09:45.901Z,21.29
2023-02-23T01:10:50.222Z,21.26
2023-02-23T01:11:54.553Z,21.25
2023-02-23T01:12:58.885Z,21.3
2023-02-23T01:14:03.170Z,21.31
2023-02-23T01:15:07.491Z,21.28
2023-02-23T01:16:11.801Z,21.28
2023-02-23T01:17:16.151Z,21.28
2023-02-23T01:18:20.490Z,21.3
2023-02-23T01:19:24.793Z,21.25
2023-02-23T01:20:29.082Z,21.22
2023-02-23T01:21:33.428Z,21.22
2023-02-23T01:22:37.781Z,21.22
2023-02-23T01:23:42.066Z,21.23
2023-02-23T01:24:46.379Z,21.25
2023-02-23T01:25:50.721Z,21.24
2023-02-23T01:26:55.014Z,21.25
2023-02-23T01:27:59.330Z,21.23
2023-02-23T01:29:03.745Z,21.21
2023-02-23T01:30:08.096Z,21.23
2023-02-23T01:31:12.570Z,21.2
2023-02-23T01:32:17.302Z,21.22
2023-02-23T01:33:21.991Z,21.21
2023-02-23T01:34:26.335Z,21.23
2023-02-23T01:35:30.646Z,21.29
2023-02-23T01:36:34.974Z,21.26
2023-02-23T01:37:39.284Z,21.25
2023-02-23T01:38:43.553Z,21.23
2023-02-23T01:39:47.878Z,21.2
2023-02-23T01:40:52.163Z,21.2
2023-02-23T01:41:56.510Z,21.21
2023-02-23T01:43:00.814Z,21.2
2023-02-23T01:44:05.125Z,21.17
2023-02-23T01:45:09.487Z,21.15
2023-02-23T01:46:13.810Z,21.17
2023-02-23T01:47:18.289Z,21.15
2023-02-23T01:48:22.622Z,21.16
2023-02-23T01:49:26.920Z,21.17
2023-02-23T01:50:31.316Z,21.16
2023-02-23T01:51:35.660Z,21.15
2023-02-23T01:52:39.968Z,21.14
2023-02-23T01:53:44.263Z,21.15
2023-02-23T01:54:48.662Z,21.16
2023-02-23T01:55:53.058Z,21.14
2023-02-23T01:56:57.390Z,21.13
2023-02-23T01:58:02.098Z,21.13
2023-02-23T01:59:06.408Z,21.11
2023-02-23T02:00:10.715Z,21.12
2023-02-23T02:01:15.073Z,21.12
2023-02-23T02:02:20.372Z,21.12
2023-02-23T02:03:24.689Z,21.11
2023-02-23T02:04:28.995Z,21.11
2023-02-23T02:05:33.319Z,21.12
2023-02-23T02:06:37.656Z,21.14
2023-02-23T02:07:41.955Z,21.13
2023-02-23T02:08:46.256Z,21.12
2023-02-23T02:09:50.606Z,21.11
2023-02-23T02:10:54.897Z,21.11
2023-02-23T02:11:59.282Z,21.15
2023-02-23T02:13:03.567Z,21.12
2023-02-23T02:14:07.877Z,21.11
2023-02-23T02:15:12.251Z,21.11
2023-02-23T02:16:16.580Z,21.13
2023-02-23T02:17:21.148Z,21.17
2023-02-23T02:18:25.448Z,21.13
2023-02-23T02:19:29.809Z,21.11
2023-02-23T02:20:34.111Z,21.1
2023-02-23T02:21:38.497Z,21.1
2023-02-23T02:22:42.817Z,21.08
2023-02-23T02:23:47.187Z,21.08
2023-02-23T02:24:51.514Z,21.1
2023-02-23T02:25:56.011Z,21.08
2023-02-23T02:27:00.504Z,21.09
2023-02-23T02:28:04.787Z,21.1
2023-02-23T02:29:09.125Z,21.08
2023-02-23T02:30:13.462Z,21.07
2023-02-23T02:31:18.031Z,21.07
2023-02-23T02:32:23.819Z,21.07
2023-02-23T02:33:28.329Z,21.06
2023-02-23T02:34:32.635Z,21.09
2023-02-23T02:35:36.925Z,21.08
2023-02-23T02:36:41.232Z,21.1
2023-02-23T02:37:45.541Z,21.09
2023-02-23T02:38:49.819Z,21.1
2023-02-23T02:39:54.148Z,21.11
2023-02-23T02:40:58.440Z,21.1
2023-02-23T02:42:02.725Z,21.09
2023-02-23T02:43:07.012Z,21.08
2023-02-23T02:44:11.329Z,21.07
2023-02-23T02:45:15.692Z,21.12
2023-02-23T02:46:20.244Z,21.15
2023-02-23T02:47:24.693Z,21.12
2023-02-23T02:48:28.980Z,21.12
2023-02-23T02:49:33.318Z,21.08
2023-02-23T02:50:37.625Z,21.09
2023-02-23T02:51:41.977Z,21.06
2023-02-23T02:52:46.276Z,21.1
2023-02-23T02:53:50.565Z,21.1
2023-02-23T02:54:54.855Z,21.09
2023-02-23T02:55:59.145Z,21.08
2023-02-23T02:57:03.489Z,21.07
2023-02-23T02:58:07.954Z,21.07
2023-02-23T02:59:12.261Z,21.05
2023-02-23T03:00:16.553Z,21.07
2023-02-23T03:01:21.227Z,21.05
2023-02-23T03:02:25.793Z,21.06
2023-02-23T03:03:30.132Z,21.07
2023-02-23T03:04:34.431Z,21.06
2023-02-23T03:05:38.730Z,21.07
2023-02-23T03:06:43.009Z,21.06
2023-02-23T03:07:47.298Z,21.05
2023-02-23T03:08:51.587Z,21.05
2023-02-23T03:09:55.912Z,21.04
2023-02-23T03:11:00.242Z,21.03
2023-02-23T03:12:04.518Z,21.03
2023-02-23T03:13:08.832Z,21.02
2023-02-23T03:14:13.185Z,21.03
2023-02-23T03:15:17.511Z,21.04
2023-02-23T03:16:22.211Z,21.02
2023-02-23T03:17:26.723Z,21.02
2023-02-23T03:18:31.106Z,21.03
2023-02-23T03:19:35.399Z,21.03
2023-02-23T03:20:39.725Z,21.06
2023-02-23T03:21:44.014Z,21.03
2023-02-23T03:22:48.404Z,21.04
2023-02-23T03:23:52.693Z,21.03
2023-02-23T03:24:57.019Z,21.04
2023-02-23T03:26:01.319Z,21.01
2023-02-23T03:27:05.614Z,21
2023-02-23T03:28:09.918Z,20.99
2023-02-23T03:29:14.225Z,21.02
2023-02-23T03:30:18.506Z,21.01
2023-02-23T03:31:22.876Z,21.01
2023-02-23T03:32:27.506Z,20.99
2023-02-23T03:33:32.561Z,21.01
2023-02-23T03:34:36.860Z,21.02
2023-02-23T03:35:41.159Z,21.01
2023-02-23T03:36:45.461Z,21.01
2023-02-23T03:37:49.763Z,21
2023-02-23T03:38:54.080Z,21
2023-02-23T03:39:58.438Z,20.99
2023-02-23T03:41:02.734Z,21.02
2023-02-23T03:42:07.023Z,21.02
2023-02-23T03:43:11.345Z,20.99
2023-02-23T03:44:15.663Z,21.02
2023-02-23T03:45:19.955Z,21.02
2023-02-23T03:46:24.366Z,21
2023-02-23T03:47:28.762Z,21
2023-02-23T03:48:33.033Z,20.99
2023-02-23T03:49:37.340Z,20.98
2023-02-23T03:50:41.627Z,20.98
2023-02-23T03:51:45.912Z,20.98
2023-02-23T03:52:50.243Z,20.97
2023-02-23T03:53:54.526Z,21.01
2023-02-23T03:54:58.817Z,21.04
2023-02-23T03:56:03.114Z,21.03
2023-02-23T03:57:07.423Z,21.03
2023-02-23T03:58:11.712Z,21.03
2023-02-23T03:59:16.002Z,21.08
2023-02-23T04:00:20.328Z,21.07
2023-02-23T04:01:24.676Z,21.07
2023-02-23T04:02:28.983Z,21.05
2023-02-23T04:03:33.337Z,21.09
2023-02-23T04:04:37.779Z,21.05
2023-02-23T04:05:42.122Z,21.03
2023-02-23T04:06:46.425Z,21.03
2023-02-23T04:07:50.730Z,21.01
2023-02-23T04:08:55.038Z,20.98
2023-02-23T04:09:59.351Z,20.97
2023-02-23T04:11:03.699Z,20.97
2023-02-23T04:12:07.981Z,20.97
2023-02-23T04:13:12.543Z,20.97
2023-02-23T04:14:16.887Z,21
2023-02-23T04:15:21.199Z,21.02
2023-02-23T04:16:25.493Z,21
2023-02-23T04:17:29.890Z,20.98
2023-02-23T04:18:34.234Z,20.97
2023-02-23T04:19:38.532Z,20.97
2023-02-23T04:20:42.851Z,20.96
2023-02-23T04:21:47.252Z,20.96
2023-02-23T04:22:51.545Z,20.97
2023-02-23T04:23:55.895Z,20.98
2023-02-23T04:25:00.167Z,20.99
2023-02-23T04:26:04.427Z,20.98
2023-02-23T04:27:08.676Z,20.99
2023-02-23T04:28:12.917Z,20.98
2023-02-23T04:29:17.159Z,20.97
2023-02-23T04:30:21.471Z,20.97
2023-02-23T04:31:26.327Z,21.01
2023-02-23T04:32:31.430Z,21.02
2023-02-23T04:33:36.103Z,21.04
2023-02-23T04:34:40.511Z,21.04
2023-02-23T04:35:44.757Z,21.09
2023-02-23T04:36:49.018Z,21.13
2023-02-23T04:37:53.303Z,21.08
2023-02-23T04:38:57.568Z,21.04
2023-02-23T04:40:01.847Z,21.07
2023-02-23T04:41:06.100Z,21.09
2023-02-23T04:42:10.324Z,21.14
2023-02-23T04:43:14.592Z,21.16
2023-02-23T04:44:19.119Z,21.12
2023-02-23T04:45:23.463Z,21.06
2023-02-23T04:46:27.739Z,21.08
2023-02-23T04:47:31.978Z,21.03
2023-02-23T04:48:36.221Z,21.02
2023-02-23T04:49:40.487Z,21.03
2023-02-23T04:50:44.774Z,21
2023-02-23T04:51:49.117Z,21.03
2023-02-23T04:52:53.414Z,21
2023-02-23T04:53:58.645Z,21.03
2023-02-23T04:55:02.897Z,21.08
2023-02-23T04:56:07.162Z,21.14
2023-02-23T04:57:11.631Z,21.12
2023-02-23T04:58:15.878Z,21.08
2023-02-23T04:59:20.142Z,21.05
2023-02-23T05:00:24.666Z,21.02
2023-02-23T05:01:29.133Z,20.99
2023-02-23T05:02:33.490Z,20.94
2023-02-23T05:03:37.759Z,20.92
2023-02-23T05:04:42.055Z,20.96
2023-02-23T05:05:46.475Z,21
2023-02-23T05:06:50.759Z,21.07
2023-02-23T05:07:55.169Z,21.16
2023-02-23T05:08:59.442Z,21.22
2023-02-23T05:10:03.694Z,21.29
2023-02-23T05:11:08.987Z,21.34
2023-02-23T05:12:13.217Z,21.43
2023-02-23T05:13:17.461Z,21.52
2023-02-23T05:14:21.712Z,21.63
2023-02-23T05:15:25.974Z,21.76
2023-02-23T05:16:30.214Z,21.87
2023-02-23T05:17:34.471Z,21.98
2023-02-23T05:18:38.707Z,22.07
2023-02-23T05:19:42.951Z,22.16
2023-02-23T05:20:47.228Z,22.23
2023-02-23T05:21:51.461Z,22.29
2023-02-23T05:22:55.719Z,22.32
2023-02-23T05:23:59.985Z,22.36
2023-02-23T05:25:04.228Z,22.39
2023-02-23T05:26:08.475Z,22.42
2023-02-23T05:27:12.797Z,22.44
2023-02-23T05:28:17.061Z,22.46
2023-02-23T05:29:21.350Z,22.48
2023-02-23T05:30:25.617Z,22.5
2023-02-23T05:31:30.034Z,22.51
2023-02-23T05:32:34.627Z,22.51
2023-02-23T05:33:39.040Z,22.5
2023-02-23T05:34:43.301Z,22.48
2023-02-23T05:35:49.795Z,22.47
2023-02-23T05:36:54.028Z,22.46
2023-02-23T05:37:58.279Z,22.45
2023-02-23T05:39:02.525Z,22.43
2023-02-23T05:40:06.831Z,22.38
2023-02-23T05:41:11.082Z,22.34
2023-02-23T05:42:15.369Z,22.32
2023-02-23T05:43:19.640Z,22.27
2023-02-23T05:44:23.924Z,22.26
2023-02-23T05:45:28.172Z,22.25
2023-02-23T05:46:32.499Z,22.23
2023-02-23T05:47:36.878Z,22.21
2023-02-23T05:48:41.371Z,22.19
2023-02-23T05:49:45.625Z,22.18
2023-02-23T05:50:49.861Z,22.14
2023-02-23T05:51:54.099Z,22.12
2023-02-23T05:52:58.336Z,22.08
2023-02-23T05:54:02.601Z,22.07
2023-02-23T05:55:06.844Z,22.05
2023-02-23T05:56:11.093Z,22
2023-02-23T05:57:15.470Z,21.98
2023-02-23T05:58:19.712Z,21.95
2023-02-23T05:59:23.957Z,21.94
2023-02-23T06:00:28.185Z,21.92
2023-02-23T06:01:32.509Z,21.88
2023-02-23T06:02:36.813Z,21.86
2023-02-23T06:03:41.339Z,21.83
2023-02-23T06:04:45.827Z,21.82
2023-02-23T06:05:50.091Z,21.81
2023-02-23T06:06:54.365Z,21.79
2023-02-23T06:07:58.630Z,21.8
2023-02-23T06:09:02.869Z,21.79
2023-02-23T06:10:07.161Z,21.76
2023-02-23T06:11:11.410Z,21.73
2023-02-23T06:12:15.667Z,21.71
2023-02-23T06:13:19.913Z,21.71
2023-02-23T06:14:24.209Z,21.69
2023-02-23T06:15:29.946Z,21.69
2023-02-23T06:16:34.425Z,21.68
2023-02-23T06:17:39.221Z,21.67
2023-02-23T06:18:43.456Z,21.67
2023-02-23T06:19:47.736Z,21.67
2023-02-23T06:20:52.004Z,21.66
2023-02-23T06:21:56.303Z,21.65
2023-02-23T06:23:00.533Z,21.64
2023-02-23T06:24:04.780Z,21.62
2023-02-23T06:25:09.202Z,21.61
2023-02-23T06:26:13.456Z,21.61
2023-02-23T06:27:17.757Z,21.59
2023-02-23T06:28:22.021Z,21.58
2023-02-23T06:29:26.590Z,21.53
2023-02-23T06:30:30.873Z,21.5
2023-02-23T06:31:35.367Z,21.48
2023-02-23T06:32:40.249Z,21.44
2023-02-23T06:33:44.549Z,21.44
2023-02-23T06:34:48.795Z,21.43
2023-02-23T06:35:53.034Z,21.41
2023-02-23T06:36:57.266Z,21.4
2023-02-23T06:38:01.649Z,21.4
2023-02-23T06:39:05.894Z,21.39
2023-02-23T06:40:10.127Z,21.37
2023-02-23T06:41:14.391Z,21.39
2023-02-23T06:42:18.998Z,21.37
2023-02-23T06:43:23.512Z,21.35
2023-02-23T06:44:27.824Z,21.35
2023-02-23T06:45:32.075Z,21.36
2023-02-23T06:46:36.472Z,21.36
2023-02-23T06:47:40.879Z,21.38
2023-02-23T06:48:45.142Z,21.4
2023-02-23T06:49:49.364Z,21.41
2023-02-23T06:50:53.609Z,21.43
2023-02-23T06:51:57.902Z,21.48
2023-02-23T06:53:02.141Z,21.49
2023-02-23T06:54:06.425Z,21.5
2023-02-23T06:55:10.788Z,21.52
2023-02-23T06:56:15.031Z,21.53
2023-02-23T06:57:19.272Z,21.54
2023-02-23T06:58:23.527Z,21.53
2023-02-23T06:59:27.826Z,21.53
2023-02-23T07:00:32.140Z,21.54
2023-02-23T07:01:36.361Z,21.54
2023-02-23T07:02:40.779Z,21.55
2023-02-23T07:03:45.075Z,21.55
2023-02-23T07:04:49.405Z,21.54
2023-02-23T07:05:53.688Z,21.51
2023-02-23T07:06:57.944Z,21.51
2023-02-23T07:08:02.192Z,21.49
2023-02-23T07:09:06.441Z,21.49
2023-02-23T07:10:10.703Z,21.48
2023-02-23T07:11:14.982Z,21.49
2023-02-23T07:12:19.895Z,21.49
2023-02-23T07:13:24.462Z,21.47
2023-02-23T07:14:28.731Z,21.48
2023-02-23T07:15:33.035Z,21.45
2023-02-23T07:16:37.290Z,21.43
2023-02-23T07:17:41.756Z,21.43
2023-02-23T07:18:46.040Z,21.41
2023-02-23T07:19:50.316Z,21.41
2023-02-23T07:20:54.600Z,21.4
2023-02-23T07:21:58.861Z,21.4
2023-02-23T07:23:03.152Z,21.39
2023-02-23T07:24:07.414Z,21.38
2023-02-23T07:25:11.672Z,21.36
2023-02-23T07:26:15.958Z,21.34
2023-02-23T07:27:20.258Z,21.34
2023-02-23T07:28:24.524Z,21.33
2023-02-23T07:29:28.808Z,21.33
2023-02-23T07:30:33.137Z,21.32
2023-02-23T07:31:37.635Z,21.31
2023-02-23T07:32:42.472Z,21.3
2023-02-23T07:33:46.884Z,21.29
2023-02-23T07:34:53.479Z,21.28
2023-02-23T07:35:58.080Z,21.27
2023-02-23T07:37:02.600Z,21.27
2023-02-23T07:38:06.894Z,21.3
2023-02-23T07:39:11.186Z,21.26
2023-02-23T07:40:15.422Z,21.31
2023-02-23T07:41:19.983Z,21.31
2023-02-23T07:42:25.296Z,21.27
2023-02-23T07:43:29.533Z,21.27
2023-02-23T07:44:33.801Z,21.27
2023-02-23T07:45:38.085Z,21.24
2023-02-23T07:46:42.420Z,21.22
2023-02-23T07:47:46.647Z,21.25
2023-02-23T07:48:50.936Z,21.25
2023-02-23T07:49:55.228Z,21.22
2023-02-23T07:50:59.492Z,21.18
2023-02-23T07:52:03.739Z,21.2
2023-02-23T07:53:08.002Z,21.19
2023-02-23T07:54:12.249Z,21.19
2023-02-23T07:55:16.666Z,21.18
2023-02-23T07:56:20.909Z,21.18
2023-02-23T07:57:25.219Z,21.23
2023-02-23T07:58:29.526Z,21.28
2023-02-23T07:59:33.800Z,21.34
2023-02-23T08:00:38.013Z,21.4
2023-02-23T08:01:42.271Z,21.43
2023-02-23T08:02:46.546Z,21.49
2023-02-23T08:03:50.839Z,21.55
2023-02-23T08:04:55.104Z,21.62
2023-02-23T08:05:59.349Z,21.68
2023-02-23T08:07:03.594Z,21.72
2023-02-23T08:08:07.884Z,21.76
2023-02-23T08:09:12.133Z,21.79
2023-02-23T08:10:16.401Z,21.8
2023-02-23T08:11:21.009Z,21.82
2023-02-23T08:12:25.473Z,21.81
2023-02-23T08:13:29.860Z,21.81
2023-02-23T08:14:34.184Z,21.81
2023-02-23T08:15:38.454Z,21.83
2023-02-23T08:16:42.729Z,21.82
2023-02-23T08:17:47.143Z,21.8
2023-02-23T08:18:51.554Z,21.81
2023-02-23T08:19:55.819Z,21.77
2023-02-23T08:21:00.100Z,21.77
2023-02-23T08:22:04.352Z,21.76
2023-02-23T08:23:12.289Z,21.73
2023-02-23T08:24:16.550Z,21.72
2023-02-23T08:25:20.801Z,21.7
2023-02-23T08:26:25.070Z,21.69
2023-02-23T08:27:29.341Z,21.68
2023-02-23T08:28:33.582Z,21.68
2023-02-23T08:29:37.842Z,21.66
2023-02-23T08:30:42.176Z,21.65
2023-02-23T08:31:46.832Z,21.63
2023-02-23T08:32:51.755Z,21.6
2023-02-23T08:33:56.097Z,21.58
2023-02-23T08:35:00.370Z,21.6
2023-02-23T08:36:04.642Z,21.57
2023-02-23T08:37:08.899Z,21.57
2023-02-23T08:38:13.617Z,21.56
2023-02-23T08:39:17.880Z,21.53
2023-02-23T08:40:22.108Z,21.53
2023-02-23T08:41:26.410Z,21.53
2023-02-23T08:42:30.636Z,21.52
2023-02-23T08:43:34.870Z,21.5
2023-02-23T08:44:39.104Z,21.52
2023-02-23T08:45:43.347Z,21.52
2023-02-23T08:46:47.639Z,21.51
2023-02-23T08:47:51.887Z,21.5
2023-02-23T08:48:56.151Z,21.49
2023-02-23T08:50:00.446Z,21.47
2023-02-23T08:51:04.745Z,21.46
2023-02-23T08:52:09.031Z,21.45
2023-02-23T08:53:13.276Z,21.43
2023-02-23T08:54:17.502Z,21.41
2023-02-23T08:55:21.823Z,21.42
2023-02-23T08:56:26.102Z,21.41
2023-02-23T08:57:30.408Z,21.39
2023-02-23T08:58:34.827Z,21.38
2023-02-23T08:59:39.079Z,21.36
2023-02-23T09:00:43.588Z,21.34
2023-02-23T09:01:47.900Z,21.34
2023-02-23T09:02:52.263Z,21.34
2023-02-23T09:03:56.558Z,21.34
2023-02-23T09:05:00.935Z,21.32
2023-02-23T09:06:05.325Z,21.32
2023-02-23T09:07:09.597Z,21.33
2023-02-23T09:08:13.856Z,21.32
2023-02-23T09:09:18.111Z,21.31
2023-02-23T09:10:22.350Z,21.28
2023-02-23T09:11:26.728Z,21.25
2023-02-23T09:12:30.990Z,21.25
2023-02-23T09:13:35.253Z,21.23
2023-02-23T09:14:39.504Z,21.22
2023-02-23T09:15:43.899Z,21.23
2023-02-23T09:16:48.371Z,21.22
2023-02-23T09:17:52.614Z,21.2
2023-02-23T09:18:56.868Z,21.21
2023-02-23T09:20:01.129Z,21.19
2023-02-23T09:21:05.852Z,21.19
2023-02-23T09:22:10.218Z,21.19
2023-02-23T09:23:14.468Z,21.18
2023-02-23T09:24:18.708Z,21.19
2023-02-23T09:25:23.174Z,21.19
2023-02-23T09:26:27.458Z,21.18
2023-02-23T09:27:31.809Z,21.18
2023-02-23T09:28:36.111Z,21.17
2023-02-23T09:29:40.375Z,21.15
2023-02-23T09:30:44.799Z,21.17
2023-02-23T09:31:49.323Z,21.2
2023-02-23T09:32:53.905Z,21.23
2023-02-23T09:33:58.215Z,21.28
2023-02-23T09:35:02.475Z,21.37
2023-02-23T09:36:06.701Z,21.42
2023-02-23T09:37:11.005Z,21.44
2023-02-23T09:38:15.318Z,21.5
2023-02-23T09:39:26.468Z,21.55
2023-02-23T09:40:42.143Z,21.64
2023-02-23T09:41:46.377Z,21.71
2023-02-23T09:42:50.705Z,21.74
2023-02-23T09:43:55.003Z,21.78
2023-02-23T09:44:59.299Z,21.8
2023-02-23T09:46:03.582Z,21.8
2023-02-23T09:47:07.891Z,21.83
2023-02-23T09:48:14.758Z,21.84
2023-02-23T09:49:19.114Z,21.82
2023-02-23T09:50:24.389Z,21.81
2023-02-23T09:51:28.661Z,21.8
2023-02-23T09:52:32.942Z,21.8
2023-02-23T09:53:37.680Z,21.8
2023-02-23T09:54:41.910Z,21.78
2023-02-23T09:55:46.199Z,21.78
2023-02-23T09:56:50.480Z,21.78
2023-02-23T09:57:54.732Z,21.78
2023-02-23T09:58:58.977Z,21.76
2023-02-23T10:00:03.245Z,21.74
2023-02-23T10:01:07.638Z,21.7
2023-02-23T10:02:12.078Z,21.67
2023-02-23T10:03:16.590Z,21.6
2023-02-23T10:04:21.060Z,21.55
2023-02-23T10:05:25.289Z,21.53
2023-02-23T10:06:29.550Z,21.47
2023-02-23T10:07:33.856Z,21.43
2023-02-23T10:08:38.122Z,21.39
2023-02-23T10:09:42.389Z,21.35
2023-02-23T10:10:46.797Z,21.3
2023-02-23T10:11:51.282Z,21.25
2023-02-23T10:12:55.606Z,21.21
2023-02-23T10:13:59.894Z,21.24
2023-02-23T10:15:04.129Z,21.22
2023-02-23T10:16:08.448Z,21.22
2023-02-23T10:17:12.956Z,21.23
2023-02-23T10:18:17.229Z,21.28
2023-02-23T10:19:21.504Z,21.34
2023-02-23T10:20:25.818Z,21.35
2023-02-23T10:21:30.129Z,21.36
2023-02-23T10:22:34.395Z,21.36
2023-02-23T10:23:38.629Z,21.37
2023-02-23T10:24:42.882Z,21.33
2023-02-23T10:25:47.173Z,21.37
2023-02-23T10:26:51.469Z,21.36
2023-02-23T10:27:55.729Z,21.35
2023-02-23T10:29:00.047Z,21.33
2023-02-23T10:30:04.460Z,21.33
2023-02-23T10:31:08.960Z,21.33
2023-02-23T10:32:13.615Z,21.33
2023-02-23T10:33:18.246Z,21.33
2023-02-23T10:34:23.645Z,21.31
2023-02-23T10:35:27.948Z,21.29
2023-02-23T10:36:32.232Z,21.28
2023-02-23T10:37:36.491Z,21.27
2023-02-23T10:38:40.798Z,21.26
2023-02-23T10:39:45.060Z,21.25
2023-02-23T10:40:52.426Z,21.25
2023-02-23T10:41:56.683Z,21.23
2023-02-23T10:43:00.964Z,21.24
2023-02-23T10:44:16.126Z,21.24
2023-02-23T10:45:20.993Z,21.24
2023-02-23T10:46:25.411Z,21.23
2023-02-23T10:47:30.639Z,21.24
2023-02-23T10:48:34.959Z,21.22
2023-02-23T10:49:39.376Z,21.21
2023-02-23T10:50:43.633Z,21.21
2023-02-23T10:51:47.958Z,21.21
2023-02-23T10:52:52.312Z,21.21
2023-02-23T10:53:56.591Z,21.21
2023-02-23T10:55:10.333Z,21.21
2023-02-23T10:56:14.561Z,21.2
2023-02-23T10:57:18.842Z,21.2
2023-02-23T10:58:23.076Z,21.19
2023-02-23T10:59:27.852Z,21.19
2023-02-23T11:00:32.130Z,21.18
2023-02-23T11:01:36.571Z,21.18
2023-02-23T11:03:01.438Z,21.15
2023-02-23T11:04:06.424Z,21.15
2023-02-23T11:05:10.704Z,21.17
2023-02-23T11:06:15.130Z,21.18
2023-02-23T11:07:19.962Z,21.18
2023-02-23T11:08:25.055Z,21.18
2023-02-23T11:09:44.054Z,21.15
2023-02-23T11:10:52.777Z,21.17
2023-02-23T11:11:57.028Z,21.18
2023-02-23T11:13:01.269Z,21.15
2023-02-23T11:14:05.583Z,21.15
2023-02-23T11:15:09.866Z,21.22
2023-02-23T11:16:16.770Z,21.29
2023-02-23T11:17:21.150Z,21.33
2023-02-23T11:18:26.217Z,21.37
2023-02-23T11:19:30.815Z,21.41
2023-02-23T11:20:35.148Z,21.44
2023-02-23T11:21:39.631Z,21.5
2023-02-23T11:22:44.012Z,21.57
2023-02-23T11:23:48.250Z,21.63
2023-02-23T11:24:52.491Z,21.68
2023-02-23T11:25:56.755Z,21.73
2023-02-23T11:27:01.034Z,21.78
2023-02-23T11:28:05.291Z,21.82
2023-02-23T11:29:09.741Z,21.85
2023-02-23T11:30:14.025Z,21.87
2023-02-23T11:31:18.684Z,21.88
2023-02-23T11:32:24.712Z,21.88
2023-02-23T11:33:29.534Z,21.9
2023-02-23T11:34:33.841Z,21.88
2023-02-23T11:35:38.083Z,21.89
2023-02-23T11:36:45.381Z,21.9
2023-02-23T11:37:49.615Z,21.88
2023-02-23T11:38:53.872Z,21.87
2023-02-23T11:39:58.119Z,21.88
2023-02-23T11:41:02.412Z,21.87
2023-02-23T11:42:06.746Z,21.85
2023-02-23T11:43:11.024Z,21.84
2023-02-23T11:44:15.249Z,21.82
2023-02-23T11:45:19.923Z,21.81
2023-02-23T11:46:24.455Z,21.8
2023-02-23T11:47:29.186Z,21.78
2023-02-23T11:48:33.440Z,21.76
2023-02-23T11:49:37.703Z,21.74
2023-02-23T11:50:41.946Z,21.73
2023-02-23T11:51:46.186Z,21.73
2023-02-23T11:52:50.451Z,21.72
2023-02-23T11:53:54.743Z,21.71
2023-02-23T11:54:59.006Z,21.7
2023-02-23T11:56:03.246Z,21.67
2023-02-23T11:57:07.480Z,21.66
2023-02-23T11:58:11.750Z,21.66
2023-02-23T11:59:16.111Z,21.64
2023-02-23T12:00:20.375Z,21.63
2023-02-23T12:01:24.649Z,21.61
2023-02-23T12:02:28.947Z,21.6
2023-02-23T12:03:33.225Z,21.6
2023-02-23T12:04:37.580Z,21.59
2023-02-23T12:05:42.040Z,21.58
2023-02-23T12:06:46.349Z,21.56
2023-02-23T12:07:50.827Z,21.58
2023-02-23T12:08:55.080Z,21.57
2023-02-23T12:09:59.436Z,21.57
2023-02-23T12:11:03.685Z,21.57
2023-02-23T12:12:07.913Z,21.56
2023-02-23T12:13:12.315Z,21.56
2023-02-23T12:14:16.575Z,21.55
2023-02-23T12:15:20.896Z,21.55
2023-02-23T12:16:25.206Z,21.53
2023-02-23T12:17:29.608Z,21.51
2023-02-23T12:18:34.885Z,21.51
2023-02-23T12:19:39.142Z,21.51
2023-02-23T12:20:43.376Z,21.51
2023-02-23T12:21:47.654Z,21.51
2023-02-23T12:22:51.903Z,21.5
2023-02-23T12:23:56.151Z,21.49
2023-02-23T12:25:00.439Z,21.49
2023-02-23T12:26:04.713Z,21.5
2023-02-23T12:27:08.958Z,21.5
2023-02-23T12:28:18.745Z,21.49
2023-02-23T12:29:23.425Z,21.48
2023-02-23T12:30:27.740Z,21.48
2023-02-23T12:31:32.097Z,21.47
2023-02-23T12:32:36.690Z,21.47
2023-02-23T12:33:41.085Z,21.48
2023-02-23T12:34:45.329Z,21.47
2023-02-23T12:35:49.614Z,21.49
2023-02-23T12:36:53.878Z,21.48
2023-02-23T12:37:58.421Z,21.47
2023-02-23T12:39:02.663Z,21.48
2023-02-23T12:40:06.932Z,21.47
2023-02-23T12:41:11.184Z,21.47
2023-02-23T12:42:15.441Z,21.47
2023-02-23T12:43:19.688Z,21.49
2023-02-23T12:44:24.175Z,21.5
2023-02-23T12:45:28.416Z,21.51
2023-02-23T12:46:32.827Z,21.53
2023-02-23T12:47:37.108Z,21.55
2023-02-23T12:48:41.364Z,21.56
2023-02-23T12:49:45.627Z,21.58
2023-02-23T12:50:49.894Z,21.62
2023-02-23T12:51:54.260Z,21.62
2023-02-23T12:52:58.509Z,21.63
2023-02-23T12:54:03.821Z,21.66
2023-02-23T12:55:08.145Z,21.65
2023-02-23T12:56:12.465Z,21.67
2023-02-23T12:57:16.770Z,21.68
2023-02-23T12:58:21.011Z,21.67
2023-02-23T12:59:25.348Z,21.67
2023-02-23T13:00:29.619Z,21.67
2023-02-23T13:01:34.089Z,21.66
2023-02-23T13:02:38.547Z,21.66
2023-02-23T13:03:43.030Z,21.65
2023-02-23T13:04:47.318Z,21.65
2023-02-23T13:05:51.565Z,21.65
2023-02-23T13:06:55.827Z,21.64
2023-02-23T13:08:11.523Z,21.64
2023-02-23T13:09:17.601Z,21.63
2023-02-23T13:10:21.890Z,21.65
2023-02-23T13:11:26.154Z,21.64
2023-02-23T13:12:30.409Z,21.63
2023-02-23T13:13:34.769Z,21.64
2023-02-23T13:14:39.036Z,21.63
2023-02-23T13:15:43.313Z,21.61
2023-02-23T13:16:47.614Z,21.59
2023-02-23T13:17:52.125Z,21.59
2023-02-23T13:18:56.379Z,21.57
2023-02-23T13:20:00.686Z,21.57
2023-02-23T13:21:05.050Z,21.57
2023-02-23T13:22:09.321Z,21.56
2023-02-23T13:23:13.579Z,21.57
2023-02-23T13:24:17.809Z,21.58
2023-02-23T13:25:22.085Z,21.57
2023-02-23T13:26:26.531Z,21.58
2023-02-23T13:27:30.827Z,21.58
2023-02-23T13:28:35.086Z,21.57
2023-02-23T13:29:39.339Z,21.57
2023-02-23T13:30:43.738Z,21.58
2023-02-23T13:31:48.450Z,21.57
2023-02-23T13:32:53.381Z,21.55
2023-02-23T13:33:57.636Z,21.56
2023-02-23T13:35:01.934Z,21.56
2023-02-23T13:36:06.211Z,21.55
2023-02-23T13:37:10.491Z,21.55
2023-02-23T13:38:14.754Z,21.54
2023-02-23T13:39:19.651Z,21.52
2023-02-23T13:40:23.975Z,21.52
2023-02-23T13:41:28.292Z,21.51
2023-02-23T13:42:32.567Z,21.52
2023-02-23T13:43:36.821Z,21.52
2023-02-23T13:44:41.422Z,21.52
2023-02-23T13:45:45.677Z,21.53
2023-02-23T13:46:50.052Z,21.52
2023-02-23T13:47:54.347Z,21.5
2023-02-23T13:49:01.147Z,21.5
2023-02-23T13:50:06.130Z,21.51
2023-02-23T13:51:10.412Z,21.51
2023-02-23T13:52:14.724Z,21.5
2023-02-23T13:53:19.084Z,21.5